Terminal Aerodrome Forecast
Issued by NWS Wilmington, NC

Home | Current Version | Previous Version | Text Only | Print | Product List | Glossary On
Versions: 1 2 3 4 5 6 7 8 9 10 11 12 13 14 15 16 17 18 19
000
FTUS42 KILM 121120
TAFILM
TAF
KILM 121120Z 1212/1312 03011G15KT 6SM -RA BR OVC035
     FM121400 02016G25KT 1SM RA BR OVC007
     FM122200 01013G20KT 5SM -RA BR OVC012
     FM130200 01010KT P6SM SCT025 BKN045=

USA.gov is the U.S. government's official web portal to all federal, state and local government web resources and services.